Wednesday, March 22, 2017, 9:11 PM CDT
Back to Local

KMDW, Chicago Midway Airport

Location: Chicago, IL, United States Lat: 41.783
Local Time: 9:11 PM CDT ( 2:11 GMT) Lon: -87.75
Time Zone: US/Central Elev: 620 ft

Show me the last for .
Show Decoded

2017-03-22 20:53 METAR KMDW 230153Z VRB06KT 10SM SCT170 BKN190 BKN250 M01/M07 A3050 RMK AO2
                 SLP341 T10061067 $ =
2017-03-22 19:53 METAR KMDW 230053Z 02009KT 10SM BKN200 BKN250 M01/M07 A3050 RMK AO2 SLP342
                 T10061072 $ =
2017-03-22 18:53 METAR KMDW 222353Z 02007KT 10SM FEW200 BKN250 M01/M08 A3051 RMK AO2 SLP344
                 T10061078 10017 21006 56012 $ =
2017-03-22 17:53 METAR KMDW 222253Z 03007KT 010V070 10SM BKN250 00/M08 A3052 RMK AO2 SLP347
                 T00001083 $ =
2017-03-22 16:53 METAR KMDW 222153Z VRB06KT 10SM BKN250 01/M08 A3052 RMK AO2 SLP346 T00061083 $ =
2017-03-22 15:53 METAR KMDW 222053Z VRB04KT 10SM FEW031 SCT250 01/M09 A3055 RMK AO2 SLP356
                 T00061089 58013 $ =
2017-03-22 14:53 METAR KMDW 221953Z 02007G17KT 10SM FEW031 FEW250 01/M08 A3056 RMK AO2 SLP361
                 T00111078 $ =
2017-03-22 13:53 METAR KMDW 221853Z 10010KT 10SM FEW031 FEW250 01/M08 A3058 RMK AO2 SLP367
                 T00061078 $ =
2017-03-22 12:53 METAR KMDW 221753Z 06013G20KT 10SM SCT031 01/M08 A3058 RMK AO2 SLP369 T00061083
                 10011 21017 50000 =
2017-03-22 11:53 METAR KMDW 221653Z 06014G20KT 10SM SCT031 00/M08 A3059 RMK AO2 SLP371 T00001083
                 =
2017-03-22 10:53 METAR KMDW 221553Z 04009G21KT 10SM BKN031 M01/M08 A3059 RMK AO2 SLP371 T10061083
                 =
2017-03-22 09:53 METAR KMDW 221453Z 06013G21KT 10SM BKN030 M01/M08 A3058 RMK AO2 SLP369 T10061083
                 53023 =
2017-03-22 08:53 METAR KMDW 221353Z 06013G21KT 10SM BKN030 M01/M08 A3056 RMK AO2 SLP358 T10061078
                 =
2017-03-22 07:53 METAR KMDW 221253Z 05015KT 10SM BKN033 M01/M08 A3054 RMK AO2 SLP352 T10111083 $
                 =
2017-03-22 06:53 METAR KMDW 221153Z 06017G21KT 10SM BKN032 M02/M09 A3051 RMK AO2 PK WND
                 03026/1140 SLP344 T10171089 10006 21017 53013 $ =
2017-03-22 05:53 METAR KMDW 221053Z 02019G23KT 10SM BKN032 M01/M09 A3050 RMK AO2 PK WND
                 06030/1015 SLP339 T10111089 $ =
2017-03-22 04:53 METAR KMDW 220953Z 02019G27KT 10SM BKN034 M01/M09 A3048 RMK AO2 PK WND
                 03028/0937 SLP333 T10111089 $ =
2017-03-22 03:53 METAR KMDW 220853Z 03017G26KT 10SM BKN034 M01/M09 A3048 RMK AO2 PK WND
                 05029/0813 SLP330 T10111089 51015 $ =
2017-03-22 02:53 METAR KMDW 220753Z 03021G31KT 10SM BKN034 M01/M08 A3047 RMK AO2 PK WND
                 05031/0706 SLP325 T10061078 $ =
2017-03-22 01:53 METAR KMDW 220653Z 02020G26KT 10SM FEW029 BKN035 00/M06 A3045 RMK AO2 PK WND
                 01030/0625 SLP321 T00001061 $ =
2017-03-22 00:53 METAR KMDW 220553Z 03016G28KT 10SM BKN033 OVC036 01/M06 A3043 RMK AO2 PK WND
                 04031/0459 SLP312 T00061056 10033 20006 401280006 51025 $ =
2017-03-21 23:53 METAR KMDW 220453Z 02021G32KT 10SM BKN030 OVC034 01/M05 A3041 RMK AO2 PK WND
                 01032/0407 SLP305 T00061050 $ =
2017-03-21 22:53 METAR KMDW 220353Z 03023G31KT 10SM BKN023 OVC026 01/M04 A3038 RMK AO2 PK WND
                 05031/0353 SLP293 T00111044 =
2017-03-21 21:53 METAR KMDW 220253Z 03018KT 10SM OVC023 02/M03 A3036 RMK AO2 PK WND 03029/0238
                 SLP286 T00171033 53027 =
2017-03-21 21:32 METAR KMDW 220232Z 03020KT 10SM BKN023 02/M03 A3035 RMK AO2 T00221033 =

Support USWX by starting your Amazon purchase here.